sensor_id;sensor_type;location;lat;lon;timestamp;pressure;altitude;pressure_sealevel;temperature;humidity
11678;BME280;5895;41.950;24.372;2022-10-16T00:00:49;87346.69;;;9.06;76.30
11678;BME280;5895;41.950;24.372;2022-10-16T00:03:16;87345.91;;;9.06;75.91
11678;BME280;5895;41.950;24.372;2022-10-16T00:05:44;87341.31;;;9.08;75.43
11678;BME280;5895;41.950;24.372;2022-10-16T00:08:12;87342.31;;;9.07;75.76
11678;BME280;5895;41.950;24.372;2022-10-16T00:10:40;87341.31;;;9.08;75.44
11678;BME280;5895;41.950;24.372;2022-10-16T00:13:07;87353.88;;;9.04;76.31
11678;BME280;5895;41.950;24.372;2022-10-16T00:15:35;87350.50;;;9.04;75.38
11678;BME280;5895;41.950;24.372;2022-10-16T00:18:04;87361.44;;;9.06;76.00
11678;BME280;5895;41.950;24.372;2022-10-16T00:20:34;87352.66;;;9.07;75.89
11678;BME280;5895;41.950;24.372;2022-10-16T00:23:02;87354.25;;;9.08;76.24
11678;BME280;5895;41.950;24.372;2022-10-16T00:25:32;87351.88;;;9.06;76.00
11678;BME280;5895;41.950;24.372;2022-10-16T00:27:59;87345.91;;;9.06;75.94
11678;BME280;5895;41.950;24.372;2022-10-16T00:30:27;87351.09;;;9.06;75.54
11678;BME280;5895;41.950;24.372;2022-10-16T00:32:55;87357.25;;;9.05;75.19
11678;BME280;5895;41.950;24.372;2022-10-16T00:35:23;87354.66;;;9.05;75.81
11678;BME280;5895;41.950;24.372;2022-10-16T00:37:50;87352.25;;;9.03;75.18
11678;BME280;5895;41.950;24.372;2022-10-16T00:40:17;87355.84;;;9.02;76.10
11678;BME280;5895;41.950;24.372;2022-10-16T00:42:46;87351.91;;;8.99;75.72
11678;BME280;5895;41.950;24.372;2022-10-16T00:45:13;87358.06;;;8.98;76.21
11678;BME280;5895;41.950;24.372;2022-10-16T00:47:42;87348.69;;;8.97;75.88
11678;BME280;5895;41.950;24.372;2022-10-16T00:50:21;87351.94;;;8.93;75.49
11678;BME280;5895;41.950;24.372;2022-10-16T00:52:50;87355.69;;;8.90;74.89
11678;BME280;5895;41.950;24.372;2022-10-16T00:55:18;87353.53;;;8.87;75.74
11678;BME280;5895;41.950;24.372;2022-10-16T00:57:48;87367.06;;;8.83;75.46
11678;BME280;5895;41.950;24.372;2022-10-16T01:00:18;87368.69;;;8.77;75.48
11678;BME280;5895;41.950;24.372;2022-10-16T01:02:52;87362.72;;;8.70;75.17
11678;BME280;5895;41.950;24.372;2022-10-16T01:05:21;87364.34;;;8.64;75.63
11678;BME280;5895;41.950;24.372;2022-10-16T01:07:53;87362.34;;;8.60;74.75
11678;BME280;5895;41.950;24.372;2022-10-16T01:10:27;87366.53;;;8.54;75.12
11678;BME280;5895;41.950;24.372;2022-10-16T01:13:04;87367.94;;;8.50;74.46
11678;BME280;5895;41.950;24.372;2022-10-16T01:15:34;87380.25;;;8.41;74.69
11678;BME280;5895;41.950;24.372;2022-10-16T01:18:08;87374.09;;;8.36;74.84
11678;BME280;5895;41.950;24.372;2022-10-16T01:20:43;87381.44;;;8.32;74.51
11678;BME280;5895;41.950;24.372;2022-10-16T01:23:26;87376.28;;;8.26;75.16
11678;BME280;5895;41.950;24.372;2022-10-16T01:26:14;87386.59;;;8.19;75.74
11678;BME280;5895;41.950;24.372;2022-10-16T01:28:51;87369.91;;;8.15;75.40
11678;BME280;5895;41.950;24.372;2022-10-16T01:31:22;87379.44;;;8.08;74.77
11678;BME280;5895;41.950;24.372;2022-10-16T01:33:56;87367.94;;;8.04;74.78
11678;BME280;5895;41.950;24.372;2022-10-16T01:36:30;87369.50;;;7.98;74.88
11678;BME280;5895;41.950;24.372;2022-10-16T01:39:01;87368.31;;;7.94;75.41
11678;BME280;5895;41.950;24.372;2022-10-16T01:41:32;87368.91;;;7.89;75.31
11678;BME280;5895;41.950;24.372;2022-10-16T01:44:04;87377.44;;;7.83;74.67
11678;BME280;5895;41.950;24.372;2022-10-16T01:46:34;87376.44;;;7.78;74.80
11678;BME280;5895;41.950;24.372;2022-10-16T01:49:03;87375.44;;;7.72;75.08
11678;BME280;5895;41.950;24.372;2022-10-16T01:51:32;87382.97;;;7.67;75.09
11678;BME280;5895;41.950;24.372;2022-10-16T01:54:01;87385.34;;;7.62;74.63
11678;BME280;5895;41.950;24.372;2022-10-16T01:56:29;87385.75;;;7.59;74.88
11678;BME280;5895;41.950;24.372;2022-10-16T01:59:00;87380.97;;;7.56;75.90
11678;BME280;5895;41.950;24.372;2022-10-16T02:01:32;87383.97;;;7.53;75.28
11678;BME280;5895;41.950;24.372;2022-10-16T02:04:04;87382.75;;;7.49;74.98
11678;BME280;5895;41.950;24.372;2022-10-16T02:06:34;87384.13;;;7.45;74.91
11678;BME280;5895;41.950;24.372;2022-10-16T02:09:01;87377.75;;;7.40;75.71
11678;BME280;5895;41.950;24.372;2022-10-16T02:11:29;87379.72;;;7.38;74.90
11678;BME280;5895;41.950;24.372;2022-10-16T02:14:00;87379.31;;;7.35;74.71
11678;BME280;5895;41.950;24.372;2022-10-16T02:16:35;87379.94;;;7.30;76.39
11678;BME280;5895;41.950;24.372;2022-10-16T02:19:03;87379.88;;;7.24;75.81
11678;BME280;5895;41.950;24.372;2022-10-16T02:21:35;87386.22;;;7.21;75.06
11678;BME280;5895;41.950;24.372;2022-10-16T02:24:10;87388.41;;;7.18;75.08
11678;BME280;5895;41.950;24.372;2022-10-16T02:26:45;87388.00;;;7.14;74.96
11678;BME280;5895;41.950;24.372;2022-10-16T02:29:18;87395.13;;;7.12;74.17
11678;BME280;5895;41.950;24.372;2022-10-16T02:31:53;87383.63;;;7.08;74.58
11678;BME280;5895;41.950;24.372;2022-10-16T02:34:24;87389.56;;;7.02;73.77
11678;BME280;5895;41.950;24.372;2022-10-16T02:36:53;87399.66;;;6.97;74.42
11678;BME280;5895;41.950;24.372;2022-10-16T02:39:21;87402.00;;;6.92;73.79
11678;BME280;5895;41.950;24.372;2022-10-16T02:41:48;87389.88;;;6.85;73.99
11678;BME280;5895;41.950;24.372;2022-10-16T02:44:16;87391.81;;;6.83;74.01
11678;BME280;5895;41.950;24.372;2022-10-16T02:46:43;87393.59;;;6.76;74.42
11678;BME280;5895;41.950;24.372;2022-10-16T02:49:11;87394.56;;;6.75;74.57
11678;BME280;5895;41.950;24.372;2022-10-16T02:51:38;87394.94;;;6.72;74.45
11678;BME280;5895;41.950;24.372;2022-10-16T02:54:06;87390.19;;;6.69;74.30
11678;BME280;5895;41.950;24.372;2022-10-16T02:56:33;87402.84;;;6.64;74.69
11678;BME280;5895;41.950;24.372;2022-10-16T02:59:00;87400.63;;;6.61;75.00
11678;BME280;5895;41.950;24.372;2022-10-16T03:01:27;87404.19;;;6.60;74.78
11678;BME280;5895;41.950;24.372;2022-10-16T03:03:54;87407.16;;;6.57;75.00
11678;BME280;5895;41.950;24.372;2022-10-16T03:06:23;87415.06;;;6.55;74.74
11678;BME280;5895;41.950;24.372;2022-10-16T03:08:50;87410.13;;;6.54;75.03
11678;BME280;5895;41.950;24.372;2022-10-16T03:11:17;87414.66;;;6.52;75.02
11678;BME280;5895;41.950;24.372;2022-10-16T03:13:44;87417.63;;;6.49;74.19
11678;BME280;5895;41.950;24.372;2022-10-16T03:16:11;87417.03;;;6.47;74.52
11678;BME280;5895;41.950;24.372;2022-10-16T03:18:38;87418.00;;;6.46;74.96
11678;BME280;5895;41.950;24.372;2022-10-16T03:21:06;87426.53;;;6.46;75.46
11678;BME280;5895;41.950;24.372;2022-10-16T03:23:34;87420.59;;;6.46;75.66
11678;BME280;5895;41.950;24.372;2022-10-16T03:26:01;87418.38;;;6.43;75.28
11678;BME280;5895;41.950;24.372;2022-10-16T03:28:28;87419.13;;;6.36;74.77
11678;BME280;5895;41.950;24.372;2022-10-16T03:30:55;87421.28;;;6.33;75.53
11678;BME280;5895;41.950;24.372;2022-10-16T03:33:23;87428.75;;;6.28;74.84
11678;BME280;5895;41.950;24.372;2022-10-16T03:35:53;87424.00;;;6.25;74.76
11678;BME280;5895;41.950;24.372;2022-10-16T03:38:21;87419.59;;;6.19;74.57
11678;BME280;5895;41.950;24.372;2022-10-16T03:40:50;87425.91;;;6.16;74.17
11678;BME280;5895;41.950;24.372;2022-10-16T03:43:17;87428.63;;;6.08;73.66
11678;BME280;5895;41.950;24.372;2022-10-16T03:45:44;87432.94;;;6.01;74.24
11678;BME280;5895;41.950;24.372;2022-10-16T03:48:11;87424.97;;;5.96;73.70
11678;BME280;5895;41.950;24.372;2022-10-16T03:50:38;87434.03;;;5.92;74.33
11678;BME280;5895;41.950;24.372;2022-10-16T03:53:06;87430.97;;;5.88;74.36
11678;BME280;5895;41.950;24.372;2022-10-16T03:55:33;87428.78;;;5.85;74.01
11678;BME280;5895;41.950;24.372;2022-10-16T03:58:01;87420.44;;;5.83;74.37
11678;BME280;5895;41.950;24.372;2022-10-16T04:00:28;87422.06;;;5.84;74.03
11678;BME280;5895;41.950;24.372;2022-10-16T04:02:56;87429.94;;;5.82;75.04
11678;BME280;5895;41.950;24.372;2022-10-16T04:05:23;87428.34;;;5.81;74.05
11678;BME280;5895;41.950;24.372;2022-10-16T04:07:50;87433.50;;;5.81;74.50
11678;BME280;5895;41.950;24.372;2022-10-16T04:10:17;87426.16;;;5.78;73.85
11678;BME280;5895;41.950;24.372;2022-10-16T04:12:44;87427.13;;;5.77;74.33
11678;BME280;5895;41.950;24.372;2022-10-16T04:15:13;87431.47;;;5.77;74.26
11678;BME280;5895;41.950;24.372;2022-10-16T04:17:40;87432.66;;;5.74;74.56
11678;BME280;5895;41.950;24.372;2022-10-16T04:20:08;87427.88;;;5.71;74.38
11678;BME280;5895;41.950;24.372;2022-10-16T04:22:35;87431.81;;;5.67;74.74
11678;BME280;5895;41.950;24.372;2022-10-16T04:25:02;87421.88;;;5.64;74.74
11678;BME280;5895;41.950;24.372;2022-10-16T04:27:29;87424.19;;;5.59;73.99
11678;BME280;5895;41.950;24.372;2022-10-16T04:29:57;87419.03;;;5.59;74.55
11678;BME280;5895;41.950;24.372;2022-10-16T04:32:26;87434.47;;;5.59;74.98
11678;BME280;5895;41.950;24.372;2022-10-16T04:34:53;87434.47;;;5.59;74.49
11678;BME280;5895;41.950;24.372;2022-10-16T04:37:23;87435.09;;;5.61;75.14
11678;BME280;5895;41.950;24.372;2022-10-16T04:39:50;87442.81;;;5.61;75.06
11678;BME280;5895;41.950;24.372;2022-10-16T04:42:17;87441.22;;;5.60;76.00
11678;BME280;5895;41.950;24.372;2022-10-16T04:44:44;87443.78;;;5.60;75.82
11678;BME280;5895;41.950;24.372;2022-10-16T04:47:12;87446.38;;;5.60;75.53
11678;BME280;5895;41.950;24.372;2022-10-16T04:49:41;87442.22;;;5.59;75.33
11678;BME280;5895;41.950;24.372;2022-10-16T04:52:08;87449.94;;;5.59;75.34
11678;BME280;5895;41.950;24.372;2022-10-16T04:54:35;87445.97;;;5.56;75.33
11678;BME280;5895;41.950;24.372;2022-10-16T04:57:02;87449.31;;;5.57;75.36
11678;BME280;5895;41.950;24.372;2022-10-16T04:59:30;87451.25;;;5.55;75.29
11678;BME280;5895;41.950;24.372;2022-10-16T05:01:57;87450.31;;;5.56;75.46
11678;BME280;5895;41.950;24.372;2022-10-16T05:04:24;87454.63;;;5.55;75.42
11678;BME280;5895;41.950;24.372;2022-10-16T05:06:53;87453.84;;;5.55;75.10
11678;BME280;5895;41.950;24.372;2022-10-16T05:09:20;87458.03;;;5.56;75.62
11678;BME280;5895;41.950;24.372;2022-10-16T05:11:47;87462.53;;;5.54;75.42
11678;BME280;5895;41.950;24.372;2022-10-16T05:14:14;87464.13;;;5.55;75.22
11678;BME280;5895;41.950;24.372;2022-10-16T05:16:41;87465.75;;;5.56;75.39
11678;BME280;5895;41.950;24.372;2022-10-16T05:19:08;87470.25;;;5.54;74.81
11678;BME280;5895;41.950;24.372;2022-10-16T05:21:36;87462.19;;;5.57;74.91
11678;BME280;5895;41.950;24.372;2022-10-16T05:24:04;87463.00;;;5.57;75.02
11678;BME280;5895;41.950;24.372;2022-10-16T05:26:31;87469.28;;;5.55;75.77
11678;BME280;5895;41.950;24.372;2022-10-16T05:28:58;87473.47;;;5.56;75.78
11678;BME280;5895;41.950;24.372;2022-10-16T05:31:26;87477.63;;;5.57;75.33
11678;BME280;5895;41.950;24.372;2022-10-16T05:33:58;87485.34;;;5.57;75.91
11678;BME280;5895;41.950;24.372;2022-10-16T05:36:25;87486.94;;;5.58;75.48
11678;BME280;5895;41.950;24.372;2022-10-16T05:38:52;87478.44;;;5.57;75.13
11678;BME280;5895;41.950;24.372;2022-10-16T05:41:21;87489.53;;;5.58;75.09
11678;BME280;5895;41.950;24.372;2022-10-16T05:43:51;87480.22;;;5.57;75.05
11678;BME280;5895;41.950;24.372;2022-10-16T05:46:18;87487.13;;;5.56;74.97
11678;BME280;5895;41.950;24.372;2022-10-16T05:48:46;87487.47;;;5.53;74.93
11678;BME280;5895;41.950;24.372;2022-10-16T05:51:14;87499.56;;;5.53;74.81
11678;BME280;5895;41.950;24.372;2022-10-16T05:53:41;87497.19;;;5.51;75.52
11678;BME280;5895;41.950;24.372;2022-10-16T05:56:10;87500.97;;;5.55;75.17
11678;BME280;5895;41.950;24.372;2022-10-16T05:58:40;87493.06;;;5.57;75.07
11678;BME280;5895;41.950;24.372;2022-10-16T06:01:10;87502.00;;;5.61;75.81
11678;BME280;5895;41.950;24.372;2022-10-16T06:03:37;87507.78;;;5.63;75.75
11678;BME280;5895;41.950;24.372;2022-10-16T06:06:09;87511.41;;;5.69;76.09
11678;BME280;5895;41.950;24.372;2022-10-16T06:08:36;87514.25;;;5.74;76.43
11678;BME280;5895;41.950;24.372;2022-10-16T06:11:05;87520.69;;;5.84;76.02
11678;BME280;5895;41.950;24.372;2022-10-16T06:13:32;87515.25;;;5.94;76.01
11678;BME280;5895;41.950;24.372;2022-10-16T06:16:01;87524.66;;;6.02;75.23
11678;BME280;5895;41.950;24.372;2022-10-16T06:18:29;87517.44;;;6.12;76.37
11678;BME280;5895;41.950;24.372;2022-10-16T06:20:57;87519.88;;;6.20;76.19
11678;BME280;5895;41.950;24.372;2022-10-16T06:23:25;87519.94;;;6.27;76.41
11678;BME280;5895;41.950;24.372;2022-10-16T06:25:52;87521.22;;;6.38;75.83
11678;BME280;5895;41.950;24.372;2022-10-16T06:28:19;87517.72;;;6.45;75.92
11678;BME280;5895;41.950;24.372;2022-10-16T06:30:46;87520.97;;;6.54;76.68
11678;BME280;5895;41.950;24.372;2022-10-16T06:33:15;87526.59;;;6.64;76.62
11678;BME280;5895;41.950;24.372;2022-10-16T06:35:42;87521.53;;;6.77;77.42
11678;BME280;5895;41.950;24.372;2022-10-16T06:38:09;87529.66;;;7.02;79.10
11678;BME280;5895;41.950;24.372;2022-10-16T06:40:36;87542.06;;;7.20;77.99
11678;BME280;5895;41.950;24.372;2022-10-16T06:43:03;87529.75;;;7.22;78.95
11678;BME280;5895;41.950;24.372;2022-10-16T06:45:30;87535.75;;;7.29;78.32
11678;BME280;5895;41.950;24.372;2022-10-16T06:47:58;87536.22;;;7.39;76.88
11678;BME280;5895;41.950;24.372;2022-10-16T06:50:26;87536.28;;;7.53;76.90
11678;BME280;5895;41.950;24.372;2022-10-16T06:52:53;87537.94;;;7.67;76.71
11678;BME280;5895;41.950;24.372;2022-10-16T06:55:20;87535.59;;;7.79;76.31
11678;BME280;5895;41.950;24.372;2022-10-16T06:57:47;87538.41;;;7.90;74.73
11678;BME280;5895;41.950;24.372;2022-10-16T07:00:15;87538.84;;;8.01;75.50
11678;BME280;5895;41.950;24.372;2022-10-16T07:02:42;87552.44;;;8.16;74.97
11678;BME280;5895;41.950;24.372;2022-10-16T07:05:09;87548.06;;;8.30;73.66
11678;BME280;5895;41.950;24.372;2022-10-16T07:07:38;87541.78;;;8.45;74.17
11678;BME280;5895;41.950;24.372;2022-10-16T07:10:06;87548.97;;;8.57;74.11
11678;BME280;5895;41.950;24.372;2022-10-16T07:12:33;87557.34;;;8.72;73.70
11678;BME280;5895;41.950;24.372;2022-10-16T07:15:00;87552.16;;;8.85;72.61
11678;BME280;5895;41.950;24.372;2022-10-16T07:17:27;87553.38;;;8.89;73.32
11678;BME280;5895;41.950;24.372;2022-10-16T07:19:54;87556.16;;;8.94;72.60
11678;BME280;5895;41.950;24.372;2022-10-16T07:22:21;87554.34;;;9.08;73.40
11678;BME280;5895;41.950;24.372;2022-10-16T07:24:50;87552.16;;;9.18;72.83
11678;BME280;5895;41.950;24.372;2022-10-16T07:27:18;87550.56;;;9.24;71.70
11678;BME280;5895;41.950;24.372;2022-10-16T07:29:47;87544.97;;;9.34;71.82
11678;BME280;5895;41.950;24.372;2022-10-16T07:32:14;87550.72;;;9.42;71.71
11678;BME280;5895;41.950;24.372;2022-10-16T07:34:42;87552.13;;;9.45;71.96
11678;BME280;5895;41.950;24.372;2022-10-16T07:37:09;87557.91;;;9.47;71.01
11678;BME280;5895;41.950;24.372;2022-10-16T07:39:36;87561.91;;;9.49;71.49
11678;BME280;5895;41.950;24.372;2022-10-16T07:42:05;87560.66;;;9.59;70.80
11678;BME280;5895;41.950;24.372;2022-10-16T07:44:33;87555.88;;;9.69;70.60
11678;BME280;5895;41.950;24.372;2022-10-16T07:47:00;87558.84;;;9.72;70.54
11678;BME280;5895;41.950;24.372;2022-10-16T07:49:27;87565.03;;;9.78;70.25
11678;BME280;5895;41.950;24.372;2022-10-16T07:51:54;87571.97;;;9.84;70.52
11678;BME280;5895;41.950;24.372;2022-10-16T07:54:21;87571.75;;;9.92;70.03
11678;BME280;5895;41.950;24.372;2022-10-16T07:56:48;87565.94;;;10.03;70.03
11678;BME280;5895;41.950;24.372;2022-10-16T07:59:17;87569.50;;;10.16;69.26
11678;BME280;5895;41.950;24.372;2022-10-16T08:01:44;87572.66;;;10.18;69.41
11678;BME280;5895;41.950;24.372;2022-10-16T08:04:11;87568.66;;;10.22;69.59
11678;BME280;5895;41.950;24.372;2022-10-16T08:06:40;87575.44;;;10.29;69.82
11678;BME280;5895;41.950;24.372;2022-10-16T08:09:08;87571.41;;;10.40;69.35
11678;BME280;5895;41.950;24.372;2022-10-16T08:11:35;87580.53;;;10.49;69.30
11678;BME280;5895;41.950;24.372;2022-10-16T08:14:02;87574.09;;;10.58;68.70
11678;BME280;5895;41.950;24.372;2022-10-16T08:16:30;87583.88;;;10.63;68.73
11678;BME280;5895;41.950;24.372;2022-10-16T08:18:58;87573.22;;;10.71;68.63
11678;BME280;5895;41.950;24.372;2022-10-16T08:21:25;87579.72;;;10.87;68.51
11678;BME280;5895;41.950;24.372;2022-10-16T08:23:53;87582.66;;;10.97;68.63
11678;BME280;5895;41.950;24.372;2022-10-16T08:26:20;87581.59;;;11.11;68.26
11678;BME280;5895;41.950;24.372;2022-10-16T08:28:49;87577.69;;;11.21;68.01
11678;BME280;5895;41.950;24.372;2022-10-16T08:31:17;87577.88;;;11.26;67.92
11678;BME280;5895;41.950;24.372;2022-10-16T08:33:45;87583.97;;;11.38;67.02
11678;BME280;5895;41.950;24.372;2022-10-16T08:36:13;87582.25;;;11.50;66.85
11678;BME280;5895;41.950;24.372;2022-10-16T08:38:40;87580.56;;;11.62;66.79
11678;BME280;5895;41.950;24.372;2022-10-16T08:41:33;87581.63;;;11.80;66.05
11678;BME280;5895;41.950;24.372;2022-10-16T08:47:06;87582.81;;;12.02;66.35
11678;BME280;5895;41.950;24.372;2022-10-16T08:49:38;87582.91;;;12.14;66.42
11678;BME280;5895;41.950;24.372;2022-10-16T08:52:10;87590.00;;;12.25;65.89
11678;BME280;5895;41.950;24.372;2022-10-16T08:54:42;87594.25;;;12.38;65.52
11678;BME280;5895;41.950;24.372;2022-10-16T08:57:13;87596.69;;;12.51;65.81
11678;BME280;5895;41.950;24.372;2022-10-16T08:59:40;87590.69;;;12.69;65.07
11678;BME280;5895;41.950;24.372;2022-10-16T09:02:23;87582.81;;;12.87;62.89
11678;BME280;5895;41.950;24.372;2022-10-16T09:05:02;87578.94;;;13.08;62.16
11678;BME280;5895;41.950;24.372;2022-10-16T09:07:49;87580.38;;;13.34;63.00
11678;BME280;5895;41.950;24.372;2022-10-16T09:10:30;87584.97;;;13.62;59.46
11678;BME280;5895;41.950;24.372;2022-10-16T09:13:11;87590.19;;;13.86;60.43
11678;BME280;5895;41.950;24.372;2022-10-16T09:15:46;87592.97;;;14.14;61.02
11678;BME280;5895;41.950;24.372;2022-10-16T09:18:21;87586.22;;;14.42;59.23
11678;BME280;5895;41.950;24.372;2022-10-16T09:20:57;87585.19;;;14.66;58.48
11678;BME280;5895;41.950;24.372;2022-10-16T09:23:29;87581.22;;;14.92;60.16
11678;BME280;5895;41.950;24.372;2022-10-16T09:25:58;87576.03;;;15.21;59.93
11678;BME280;5895;41.950;24.372;2022-10-16T09:28:25;87585.59;;;15.44;58.89
11678;BME280;5895;41.950;24.372;2022-10-16T09:30:52;87584.69;;;15.67;58.85
11678;BME280;5895;41.950;24.372;2022-10-16T09:33:23;87588.41;;;15.87;56.67
11678;BME280;5895;41.950;24.372;2022-10-16T09:35:54;87592.06;;;16.03;56.78
11678;BME280;5895;41.950;24.372;2022-10-16T09:38:26;87585.84;;;16.26;57.91
11678;BME280;5895;41.950;24.372;2022-10-16T09:40:55;87585.91;;;16.48;57.91
11678;BME280;5895;41.950;24.372;2022-10-16T09:43:25;87580.94;;;16.69;56.23
11678;BME280;5895;41.950;24.372;2022-10-16T09:45:58;87593.53;;;16.88;56.97
11678;BME280;5895;41.950;24.372;2022-10-16T09:48:29;87586.38;;;17.06;55.88
11678;BME280;5895;41.950;24.372;2022-10-16T09:51:03;87589.97;;;17.22;53.41
11678;BME280;5895;41.950;24.372;2022-10-16T09:53:41;87589.59;;;17.35;52.94
11678;BME280;5895;41.950;24.372;2022-10-16T09:56:10;87586.91;;;17.52;56.60
11678;BME280;5895;41.950;24.372;2022-10-16T09:58:42;87598.09;;;17.69;54.79
11678;BME280;5895;41.950;24.372;2022-10-16T10:01:13;87585.09;;;17.79;51.28
11678;BME280;5895;41.950;24.372;2022-10-16T10:03:42;87582.56;;;17.94;56.80
11678;BME280;5895;41.950;24.372;2022-10-16T10:06:22;87585.47;;;18.25;50.72
11678;BME280;5895;41.950;24.372;2022-10-16T10:08:58;87576.38;;;18.43;50.83
11678;BME280;5895;41.950;24.372;2022-10-16T10:11:49;87582.00;;;18.62;48.77
11678;BME280;5895;41.950;24.372;2022-10-16T10:14:20;87577.84;;;18.66;53.65
11678;BME280;5895;41.950;24.372;2022-10-16T10:16:48;87573.44;;;18.76;55.22
11678;BME280;5895;41.950;24.372;2022-10-16T10:19:17;87571.13;;;18.85;54.89
11678;BME280;5895;41.950;24.372;2022-10-16T10:21:46;87574.34;;;18.97;54.19
11678;BME280;5895;41.950;24.372;2022-10-16T10:24:15;87568.09;;;19.19;54.53
11678;BME280;5895;41.950;24.372;2022-10-16T10:26:49;87564.47;;;19.35;52.18
11678;BME280;5895;41.950;24.372;2022-10-16T10:29:27;87560.31;;;19.44;48.30
11678;BME280;5895;41.950;24.372;2022-10-16T10:32:03;87565.59;;;19.49;49.12
11678;BME280;5895;41.950;24.372;2022-10-16T10:34:53;87562.25;;;19.64;46.87
11678;BME280;5895;41.950;24.372;2022-10-16T10:37:37;87555.13;;;19.80;49.11
11678;BME280;5895;41.950;24.372;2022-10-16T10:40:30;87562.53;;;19.88;48.39
11678;BME280;5895;41.950;24.372;2022-10-16T10:43:04;87570.97;;;20.00;48.60
11678;BME280;5895;41.950;24.372;2022-10-16T10:45:42;87569.94;;;20.12;48.75
11678;BME280;5895;41.950;24.372;2022-10-16T10:48:27;87564.91;;;20.30;46.54
11678;BME280;5895;41.950;24.372;2022-10-16T10:51:01;87569.38;;;20.30;49.00
11678;BME280;5895;41.950;24.372;2022-10-16T10:53:43;87570.44;;;20.39;45.96
11678;BME280;5895;41.950;24.372;2022-10-16T10:56:22;87573.09;;;20.39;48.65
11678;BME280;5895;41.950;24.372;2022-10-16T10:59:06;87576.50;;;20.45;48.53
11678;BME280;5895;41.950;24.372;2022-10-16T11:01:41;87566.25;;;20.53;48.24
11678;BME280;5895;41.950;24.372;2022-10-16T11:07:19;87560.41;;;20.82;50.94
11678;BME280;5895;41.950;24.372;2022-10-16T11:09:52;87560.91;;;20.94;45.86
11678;BME280;5895;41.950;24.372;2022-10-16T11:12:24;87560.31;;;21.12;47.04
11678;BME280;5895;41.950;24.372;2022-10-16T11:14:56;87569.50;;;21.25;48.41
11678;BME280;5895;41.950;24.372;2022-10-16T11:17:28;87556.31;;;21.30;48.72
11678;BME280;5895;41.950;24.372;2022-10-16T11:20:00;87562.38;;;21.36;47.78
11678;BME280;5895;41.950;24.372;2022-10-16T11:22:33;87564.50;;;21.24;49.71
11678;BME280;5895;41.950;24.372;2022-10-16T11:25:13;87565.31;;;21.29;41.96
11678;BME280;5895;41.950;24.372;2022-10-16T11:27:43;87556.53;;;21.44;47.40
11678;BME280;5895;41.950;24.372;2022-10-16T11:30:16;87566.50;;;21.57;47.45
11678;BME280;5895;41.950;24.372;2022-10-16T11:32:55;87553.75;;;21.70;44.43
11678;BME280;5895;41.950;24.372;2022-10-16T11:35:36;87557.41;;;21.79;43.69
11678;BME280;5895;41.950;24.372;2022-10-16T11:38:14;87555.78;;;21.83;44.36
11678;BME280;5895;41.950;24.372;2022-10-16T11:40:47;87562.13;;;21.87;42.82
11678;BME280;5895;41.950;24.372;2022-10-16T11:43:21;87560.50;;;21.91;43.59
11678;BME280;5895;41.950;24.372;2022-10-16T11:45:54;87557.53;;;22.03;48.46
11678;BME280;5895;41.950;24.372;2022-10-16T11:48:26;87559.06;;;22.14;44.99
11678;BME280;5895;41.950;24.372;2022-10-16T11:50:58;87556.63;;;22.23;45.12
11678;BME280;5895;41.950;24.372;2022-10-16T11:53:38;87561.66;;;22.24;40.57
11678;BME280;5895;41.950;24.372;2022-10-16T11:56:13;87558.75;;;22.21;40.09
11678;BME280;5895;41.950;24.372;2022-10-16T11:58:50;87558.28;;;22.08;41.42
11678;BME280;5895;41.950;24.372;2022-10-16T12:01:24;87568.34;;;22.06;44.60
11678;BME280;5895;41.950;24.372;2022-10-16T12:04:02;87561.72;;;22.14;41.67
11678;BME280;5895;41.950;24.372;2022-10-16T12:06:35;87566.22;;;22.08;44.47
11678;BME280;5895;41.950;24.372;2022-10-16T12:09:04;87576.78;;;22.08;47.82
11678;BME280;5895;41.950;24.372;2022-10-16T12:11:36;87573.91;;;22.00;43.73
11678;BME280;5895;41.950;24.372;2022-10-16T12:14:33;87573.06;;;22.09;46.91
11678;BME280;5895;41.950;24.372;2022-10-16T12:17:02;87569.63;;;22.14;47.56
11678;BME280;5895;41.950;24.372;2022-10-16T12:19:31;87581.09;;;21.94;47.85
11678;BME280;5895;41.950;24.372;2022-10-16T12:22:00;87574.78;;;21.90;47.37
11678;BME280;5895;41.950;24.372;2022-10-16T12:24:34;87579.03;;;21.86;41.05
11678;BME280;5895;41.950;24.372;2022-10-16T12:27:06;87585.94;;;21.77;42.95
11678;BME280;5895;41.950;24.372;2022-10-16T12:29:36;87578.03;;;21.72;46.91
11678;BME280;5895;41.950;24.372;2022-10-16T12:32:05;87597.88;;;21.69;48.19
11678;BME280;5895;41.950;24.372;2022-10-16T12:34:47;87594.47;;;21.63;46.84
11678;BME280;5895;41.950;24.372;2022-10-16T12:37:20;87594.28;;;21.45;42.82
11678;BME280;5895;41.950;24.372;2022-10-16T12:39:49;87590.59;;;21.46;48.20
11678;BME280;5895;41.950;24.372;2022-10-16T12:42:24;87590.59;;;21.46;42.62
11678;BME280;5895;41.950;24.372;2022-10-16T12:44:59;87585.50;;;21.59;48.21
11678;BME280;5895;41.950;24.372;2022-10-16T12:47:37;87593.16;;;21.61;40.00
11678;BME280;5895;41.950;24.372;2022-10-16T12:50:29;87602.38;;;21.63;39.08
11678;BME280;5895;41.950;24.372;2022-10-16T12:52:58;87599.81;;;21.43;47.64
11678;BME280;5895;41.950;24.372;2022-10-16T12:55:26;87611.22;;;21.38;48.09
11678;BME280;5895;41.950;24.372;2022-10-16T12:58:23;87610.41;;;21.38;39.00
11678;BME280;5895;41.950;24.372;2022-10-16T13:00:56;87623.06;;;21.46;43.53
11678;BME280;5895;41.950;24.372;2022-10-16T13:03:49;87617.75;;;21.56;39.46
11678;BME280;5895;41.950;24.372;2022-10-16T13:06:30;87615.63;;;21.58;41.23
11678;BME280;5895;41.950;24.372;2022-10-16T13:12:22;87629.88;;;21.57;38.17
11678;BME280;5895;41.950;24.372;2022-10-16T13:15:17;87632.50;;;21.62;39.77
11678;BME280;5895;41.950;24.372;2022-10-16T13:17:53;87630.97;;;21.51;41.05
11678;BME280;5895;41.950;24.372;2022-10-16T13:20:33;87630.19;;;21.51;40.17
11678;BME280;5895;41.950;24.372;2022-10-16T13:23:13;87629.13;;;21.47;40.56
11678;BME280;5895;41.950;24.372;2022-10-16T13:25:57;87628.34;;;21.46;38.56
11678;BME280;5895;41.950;24.372;2022-10-16T13:28:30;87631.50;;;21.43;44.61
11678;BME280;5895;41.950;24.372;2022-10-16T13:31:01;87628.06;;;21.43;40.98
11678;BME280;5895;41.950;24.372;2022-10-16T13:33:32;87638.94;;;21.36;45.51
11678;BME280;5895;41.950;24.372;2022-10-16T13:36:00;87628.13;;;21.22;45.55